Time;durP1;ratioP1;P1;durP2;ratioP2;P2;SDS_P1;SDS_P2;PMS_P1;PMS_P2;Temp;Humidity;BMP_temperature;BMP_pressure;BME280_temperature;BME280_humidity;BME280_pressure;Samples;Min_cycle;Max_cycle;Signal;HPM_P1;HPM_P2
2023/03/20 06:53:10;;;;;;;4.78;3.58;;;;;;;;;;10629181;27;20900;-83
2023/03/20 06:58:11;;;;;;;8.68;5.25;;;;;;;;;;10625823;28;20031;-83
2023/03/20 07:03:12;;;;;;;7.45;4.47;;;;;;;;;;10641422;28;20047;-83
2023/03/20 07:08:14;;;;;;;5.53;3.80;;;;;;;;;;10647818;28;20034;-83
2023/03/20 07:13:17;;;;;;;11.07;7.18;;;;;;;;;;10648272;28;20462;-83
2023/03/20 07:18:18;;;;;;;8.23;4.85;;;;;;;;;;10646192;28;20024;-83
2023/03/20 07:23:20;;;;;;;9.35;6.18;;;;;;;;;;10640501;28;20046;-83
2023/03/20 07:28:24;;;;;;;5.63;4.05;;;;;;;;;;10639041;28;20024;-83
2023/03/20 07:33:37;;;;;;;12.15;7.70;;;;;;;;;;10637645;28;20034;-83
2023/03/20 07:44:04;;;;;;;7.70;5.00;;;;;;;;;;10656987;28;20043;-82
2023/03/20 07:49:05;;;;;;;4.90;3.42;;;;;;;;;;10659907;27;20041;-85
2023/03/20 07:54:07;;;;;;;8.60;5.40;;;;;;;;;;10648812;28;20027;-82
2023/03/20 07:59:09;;;;;;;6.53;4.45;;;;;;;;;;10649711;28;20030;-82
2023/03/20 08:04:12;;;;;;;10.45;5.60;;;;;;;;;;10625088;28;20023;-82
2023/03/20 08:09:20;;;;;;;9.02;5.05;;;;;;;;;;10624529;28;20060;-82
2023/03/20 08:14:27;;;;;;;4.15;2.45;;;;;;;;;;10609056;28;20059;-81
2023/03/20 08:19:28;;;;;;;6.95;3.80;;;;;;;;;;10605275;28;20051;-81
2023/03/20 08:24:31;;;;;;;5.57;3.85;;;;;;;;;;10612836;28;20016;-82
2023/03/20 08:29:32;;;;;;;9.00;4.88;;;;;;;;;;10610080;28;20024;-80
2023/03/20 08:34:33;;;;;;;13.10;9.35;;;;;;;;;;10609178;28;20039;-81
2023/03/20 08:39:36;;;;;;;18.10;11.93;;;;;;;;;;10610449;28;20465;-82
2023/03/20 08:44:37;;;;;;;25.73;21.08;;;;;;;;;;10611924;28;20028;-80
2023/03/20 08:49:38;;;;;;;;;;;;;;;;;;10616106;28;20061;-79
2023/03/20 08:54:39;;;;;;;13.98;9.77;;;;;;;;;;10611702;28;20040;-80
2023/03/20 08:59:41;;;;;;;17.73;13.75;;;;;;;;;;10614670;28;20032;-80
2023/03/20 09:04:44;;;;;;;15.48;12.30;;;;;;;;;;10612486;28;20027;-81
2023/03/20 09:09:45;;;;;;;9.93;6.47;;;;;;;;;;10614335;28;20625;-81
2023/03/20 09:14:46;;;;;;;9.95;6.85;;;;;;;;;;10611331;28;20049;-79
2023/03/20 09:19:47;;;;;;;;;;;;;;;;;;10615338;28;20132;-78
2023/03/20 09:24:48;;;;;;;7.90;5.53;;;;;;;;;;10612979;28;19942;-78
2023/03/20 09:29:49;;;;;;;;;;;;;;;;;;10610437;28;20105;-80
2023/03/20 09:34:50;;;;;;;6.75;4.55;;;;;;;;;;10608280;28;19997;-79
2023/03/20 09:39:51;;;;;;;7.85;4.57;;;;;;;;;;10608542;28;20028;-79
2023/03/20 09:44:58;;;;;;;7.68;4.40;;;;;;;;;;10608745;28;20027;-79
2023/03/20 09:50:24;;;;;;;7.07;3.28;;;;;;;;;;10601132;28;20131;-79
2023/03/20 09:55:29;;;;;;;7.10;3.63;;;;;;;;;;10598306;28;20020;-79
2023/03/20 10:00:32;;;;;;;5.93;3.10;;;;;;;;;;10601954;28;20054;-79
2023/03/20 10:05:44;;;;;;;4.70;2.45;;;;;;;;;;10600924;28;20091;-78
2023/03/20 10:10:48;;;;;;;6.78;3.05;;;;;;;;;;10602840;28;20047;-79
2023/03/20 10:15:55;;;;;;;6.93;2.90;;;;;;;;;;10608584;28;20031;-80
2023/03/20 10:21:03;;;;;;;4.80;1.92;;;;;;;;;;10613474;28;20049;-80
2023/03/20 10:26:07;;;;;;;5.72;2.97;;;;;;;;;;10603657;28;20461;-79
2023/03/20 10:31:27;;;;;;;5.05;3.00;;;;;;;;;;10602264;28;20056;-79
2023/03/20 10:36:47;;;;;;;5.53;2.70;;;;;;;;;;10597245;28;20035;-80
2023/03/20 10:41:53;;;;;;;5.68;3.00;;;;;;;;;;10601135;28;20015;-80
2023/03/20 10:46:57;;;;;;;4.68;2.15;;;;;;;;;;10602181;28;20034;-79
2023/03/20 10:52:00;;;;;;;6.80;4.32;;;;;;;;;;10607047;28;20036;-81
2023/03/20 10:57:05;;;;;;;4.68;2.53;;;;;;;;;;10606973;28;20039;-80
2023/03/20 11:02:10;;;;;;;6.03;3.20;;;;;;;;;;10609395;28;20027;-81
2023/03/20 11:07:25;;;;;;;4.20;2.55;;;;;;;;;;10607686;28;20024;-80
2023/03/20 11:12:32;;;;;;;5.97;2.90;;;;;;;;;;10605209;28;20024;-81
2023/03/20 11:17:33;;;;;;;4.88;2.50;;;;;;;;;;10608158;28;20074;-79
2023/03/20 11:22:34;;;;;;;;;;;;;;;;;;10607052;28;20458;-81
2023/03/20 11:27:36;;;;;;;6.18;2.83;;;;;;;;;;10607223;28;19972;-80
2023/03/20 11:32:41;;;;;;;4.00;2.20;;;;;;;;;;10609291;28;20043;-80
2023/03/20 11:37:48;;;;;;;5.68;2.70;;;;;;;;;;10614892;28;20020;-80
2023/03/20 11:42:54;;;;;;;5.30;3.03;;;;;;;;;;10618460;28;20028;-79
2023/03/20 11:47:56;;;;;;;6.65;3.08;;;;;;;;;;10619144;28;20020;-80
2023/03/20 11:52:57;;;;;;;6.30;2.60;;;;;;;;;;10618201;28;20473;-79
2023/03/20 11:57:59;;;;;;;5.32;3.20;;;;;;;;;;10609961;28;20027;-79
2023/03/20 12:03:00;;;;;;;4.47;2.90;;;;;;;;;;10614049;28;20436;-79
2023/03/20 12:08:21;;;;;;;6.07;2.40;;;;;;;;;;10597637;28;20099;-79
2023/03/20 12:13:25;;;;;;;4.80;2.38;;;;;;;;;;10610549;28;20028;-79
2023/03/20 12:18:26;;;;;;;6.68;3.10;;;;;;;;;;10617290;28;20550;-79
2023/03/20 12:23:31;;;;;;;4.68;2.03;;;;;;;;;;10606783;28;20026;-78
2023/03/20 12:28:51;;;;;;;4.22;2.35;;;;;;;;;;10606395;27;20039;-78
2023/03/20 12:34:01;;;;;;;5.63;2.28;;;;;;;;;;10607252;28;20118;-79
2023/03/20 12:39:03;;;;;;;6.27;2.27;;;;;;;;;;10607285;28;20479;-78
2023/03/20 12:44:04;;;;;;;3.40;2.10;;;;;;;;;;10541902;22;20053;-80
2023/03/20 12:49:14;;;;;;;3.80;1.92;;;;;;;;;;10508612;28;20029;-81
2023/03/20 12:54:24;;;;;;;5.85;3.33;;;;;;;;;;10511346;28;20397;-81
2023/03/20 12:59:31;;;;;;;4.78;2.50;;;;;;;;;;10529206;28;20088;-82
2023/03/20 13:04:43;;;;;;;5.28;2.55;;;;;;;;;;10510119;28;20078;-81
2023/03/20 13:09:59;;;;;;;4.47;2.13;;;;;;;;;;10507940;28;20078;-81
2023/03/20 13:15:00;;;;;;;5.78;3.13;;;;;;;;;;10513347;28;20076;-80
2023/03/20 13:20:16;;;;;;;4.25;2.30;;;;;;;;;;10533613;28;20090;-79
2023/03/20 13:25:17;;;;;;;5.13;3.10;;;;;;;;;;10517120;28;20025;-81
2023/03/20 13:30:29;;;;;;;4.97;2.72;;;;;;;;;;10507885;28;20470;-81
2023/03/20 13:35:43;;;;;;;5.95;1.83;;;;;;;;;;10506792;28;20029;-79
2023/03/20 13:40:45;;;;;;;4.32;2.45;;;;;;;;;;10507729;28;20085;-79
2023/03/20 13:45:47;;;;;;;6.75;4.20;;;;;;;;;;10504576;28;20047;-79
2023/03/20 13:50:58;;;;;;;5.15;2.97;;;;;;;;;;10504241;28;20024;-80
2023/03/20 13:56:04;;;;;;;4.63;2.75;;;;;;;;;;10504812;28;20059;-81
2023/03/20 14:01:32;;;;;;;6.43;2.63;;;;;;;;;;10506177;28;20038;-81
2023/03/20 14:06:41;;;;;;;4.97;3.00;;;;;;;;;;10477878;28;20124;-81
2023/03/20 14:11:43;;;;;;;3.75;2.20;;;;;;;;;;10506691;28;20449;-81
2023/03/20 14:16:44;;;;;;;5.03;2.60;;;;;;;;;;10505204;28;20028;-82
2023/03/20 14:21:46;;;;;;;3.45;2.17;;;;;;;;;;10504463;28;20020;-80
2023/03/20 14:26:49;;;;;;;3.80;2.10;;;;;;;;;;10506436;28;20527;-79
2023/03/20 14:31:51;;;;;;;3.67;1.90;;;;;;;;;;10507989;28;20025;-80
2023/03/20 14:36:59;;;;;;;4.00;2.45;;;;;;;;;;10505916;28;20078;-80
2023/03/20 14:42:20;;;;;;;4.60;2.42;;;;;;;;;;10505977;28;20391;-81
2023/03/20 14:47:42;;;;;;;3.53;2.05;;;;;;;;;;10513923;28;20016;-80
2023/03/20 14:52:59;;;;;;;6.10;2.30;;;;;;;;;;10508645;28;20024;-79
2023/03/20 14:58:04;;;;;;;4.35;2.33;;;;;;;;;;10503883;28;20032;-81
2023/03/20 15:03:05;;;;;;;3.13;2.00;;;;;;;;;;10507434;28;20032;-80
2023/03/20 15:08:08;;;;;;;5.95;2.85;;;;;;;;;;10503099;28;20032;-80
2023/03/20 15:13:10;;;;;;;7.00;3.00;;;;;;;;;;10507986;28;20040;-80
2023/03/20 15:18:12;;;;;;;6.75;3.65;;;;;;;;;;10509044;28;20024;-79
2023/03/20 15:23:13;;;;;;;5.68;3.08;;;;;;;;;;10510465;28;20055;-79
2023/03/20 15:28:20;;;;;;;5.20;2.97;;;;;;;;;;10511399;28;20174;-79
2023/03/20 15:33:41;;;;;;;3.90;2.22;;;;;;;;;;10512028;28;20455;-79
2023/03/20 15:38:43;;;;;;;5.80;3.08;;;;;;;;;;10511602;28;20078;-79
2023/03/20 15:43:44;;;;;;;4.22;2.10;;;;;;;;;;10508848;28;20055;-79
2023/03/20 15:48:49;;;;;;;5.25;2.20;;;;;;;;;;10510518;28;20032;-79
2023/03/20 15:53:50;;;;;;;7.68;3.20;;;;;;;;;;10510768;28;20016;-78
2023/03/20 15:58:54;;;;;;;;;;;;;;;;;;10513472;28;20029;-79
2023/03/20 16:03:57;;;;;;;3.67;1.85;;;;;;;;;;10515223;28;19911;-79
2023/03/20 16:09:02;;;;;;;7.53;2.95;;;;;;;;;;10513263;28;20390;-79
2023/03/20 16:14:03;;;;;;;4.35;1.73;;;;;;;;;;10512959;28;20031;-78
2023/03/20 16:19:05;;;;;;;6.65;3.35;;;;;;;;;;10510745;28;20497;-80
2023/03/20 16:24:08;;;;;;;6.25;2.80;;;;;;;;;;10510580;28;20062;-80
2023/03/20 16:29:10;;;;;;;5.43;2.70;;;;;;;;;;10509497;28;20053;-80
2023/03/20 16:34:17;;;;;;;4.50;2.15;;;;;;;;;;10512035;28;20436;-78
2023/03/20 16:39:20;;;;;;;4.75;2.20;;;;;;;;;;10523977;28;20024;-80
2023/03/20 16:44:22;;;;;;;4.82;2.35;;;;;;;;;;10507517;28;20073;-79
2023/03/20 16:49:31;;;;;;;5.00;2.25;;;;;;;;;;10516564;28;20025;-78
2023/03/20 16:54:34;;;;;;;3.83;1.80;;;;;;;;;;10519948;28;20031;-78
2023/03/20 16:59:38;;;;;;;6.57;2.65;;;;;;;;;;10517354;28;20577;-79
2023/03/20 17:04:40;;;;;;;7.60;2.90;;;;;;;;;;10514094;28;20029;-78
2023/03/20 17:10:00;;;;;;;4.35;2.15;;;;;;;;;;10512873;28;20375;-79
2023/03/20 17:15:01;;;;;;;5.55;2.20;;;;;;;;;;10514019;28;20032;-79
2023/03/20 17:20:03;;;;;;;5.57;2.40;;;;;;;;;;10517901;28;20063;-78
2023/03/20 17:25:05;;;;;;;5.97;3.33;;;;;;;;;;10513732;28;20044;-81
2023/03/20 17:30:07;;;;;;;5.88;2.58;;;;;;;;;;10511929;28;20021;-80
2023/03/20 17:35:08;;;;;;;4.22;2.00;;;;;;;;;;10512668;28;20048;-80
2023/03/20 17:40:20;;;;;;;3.95;2.10;;;;;;;;;;10512144;28;20133;-80
2023/03/20 17:45:22;;;;;;;4.50;2.20;;;;;;;;;;10513178;28;20028;-80
2023/03/20 17:50:25;;;;;;;4.25;2.10;;;;;;;;;;10514285;28;20500;-80
2023/03/20 17:55:26;;;;;;;4.25;1.85;;;;;;;;;;10517809;28;20025;-81
2023/03/20 18:00:27;;;;;;;4.13;2.00;;;;;;;;;;10516482;28;20028;-80
2023/03/20 18:05:31;;;;;;;4.07;2.58;;;;;;;;;;10513778;28;20055;-80
2023/03/20 18:10:33;;;;;;;4.30;1.95;;;;;;;;;;10513504;28;20039;-80
2023/03/20 18:15:37;;;;;;;2.80;1.60;;;;;;;;;;10512189;28;20486;-80
2023/03/20 18:20:42;;;;;;;4.72;2.05;;;;;;;;;;10512901;28;20081;-80
2023/03/20 18:25:43;;;;;;;5.45;2.63;;;;;;;;;;10513881;28;20028;-79
2023/03/20 18:30:44;;;;;;;5.72;3.13;;;;;;;;;;10513185;28;20119;-80
2023/03/20 18:35:46;;;;;;;6.15;2.42;;;;;;;;;;10511949;28;20028;-80
2023/03/20 18:40:47;;;;;;;7.30;3.08;;;;;;;;;;10511018;28;20046;-81
2023/03/20 18:45:48;;;;;;;6.50;3.22;;;;;;;;;;10508830;28;20091;-82
2023/03/20 18:50:49;;;;;;;3.80;1.98;;;;;;;;;;10509491;28;20115;-82
2023/03/20 18:55:50;;;;;;;4.20;1.85;;;;;;;;;;10510297;28;20073;-83
2023/03/20 19:00:53;;;;;;;5.53;2.40;;;;;;;;;;10513505;28;20449;-82
2023/03/20 19:05:56;;;;;;;7.82;3.03;;;;;;;;;;10526573;28;20016;-81
2023/03/20 19:10:57;;;;;;;3.95;2.35;;;;;;;;;;10518586;28;20037;-81
2023/03/20 19:15:58;;;;;;;7.47;2.83;;;;;;;;;;10506764;28;20123;-82
2023/03/20 19:20:59;;;;;;;4.47;2.20;;;;;;;;;;10507311;28;20091;-84
2023/03/20 19:26:00;;;;;;;6.55;2.90;;;;;;;;;;10506609;28;20121;-81
2023/03/20 19:31:01;;;;;;;7.22;2.15;;;;;;;;;;10506645;28;20119;-82
2023/03/20 19:36:02;;;;;;;6.90;3.05;;;;;;;;;;10506155;28;20129;-82
2023/03/20 19:41:03;;;;;;;6.97;2.67;;;;;;;;;;10505699;28;20028;-81
2023/03/20 19:46:05;;;;;;;5.22;2.67;;;;;;;;;;10505799;28;20111;-82
2023/03/20 19:51:06;;;;;;;6.03;2.00;;;;;;;;;;10506931;28;20039;-81
2023/03/20 19:56:07;;;;;;;4.63;2.30;;;;;;;;;;10505560;28;20074;-82
2023/03/20 20:01:10;;;;;;;3.40;2.00;;;;;;;;;;10513721;28;20444;-82
2023/03/20 20:06:11;;;;;;;6.88;2.63;;;;;;;;;;10513033;28;20028;-83
2023/03/20 20:11:13;;;;;;;;;;;;;;;;;;10516471;28;20063;-82
2023/03/20 20:16:14;;;;;;;5.93;2.42;;;;;;;;;;10522823;28;19904;-82
